Time;durP1;ratioP1;P1;durP2;ratioP2;P2;SDS_P1;SDS_P2;PMS_P1;PMS_P2;Temp;Humidity;BMP_temperature;BMP_pressure;BME280_temperature;BME280_humidity;BME280_pressure;Samples;Min_cycle;Max_cycle;Signal;HPM_P1;HPM_P2
2022/04/06 00:01:15;;;;;;;16.90;4.95;;;10.60;80.60;;;;;;5020635;28;20485;-76
2022/04/06 00:03:43;;;;;;;14.82;4.68;;;10.60;80.50;;;;;;5002011;28;20304;-76
2022/04/06 00:06:09;;;;;;;18.65;4.90;;;10.60;80.00;;;;;;4998744;28;20629;-77
2022/04/06 00:08:35;;;;;;;17.55;4.97;;;10.60;79.30;;;;;;5021564;28;20037;-76
2022/04/06 00:11:00;;;;;;;15.55;4.78;;;10.60;78.80;;;;;;5020306;28;20221;-76
2022/04/06 00:13:26;;;;;;;16.75;4.25;;;10.60;78.20;;;;;;5018835;28;20076;-76
2022/04/06 00:15:52;;;;;;;17.77;4.30;;;10.60;76.90;;;;;;5018498;28;20380;-78
2022/04/06 00:18:17;;;;;;;15.50;3.97;;;10.70;76.70;;;;;;5019148;28;20446;-77
2022/04/06 00:20:43;;;;;;;16.52;4.40;;;10.60;76.50;;;;;;5019484;28;20121;-77
2022/04/06 00:23:09;;;;;;;17.45;4.40;;;10.60;75.90;;;;;;5016576;28;20053;-78
2022/04/06 00:25:34;;;;;;;17.42;4.55;;;10.60;75.80;;;;;;4997525;28;20042;-78
2022/04/06 00:28:00;;;;;;;12.52;3.58;;;10.60;75.70;;;;;;5020328;28;20041;-76
2022/04/06 00:30:26;;;;;;;15.32;4.65;;;10.60;75.50;;;;;;5019517;28;20935;-76
2022/04/06 00:32:51;;;;;;;15.85;3.88;;;10.60;75.60;;;;;;5019646;28;20116;-77
2022/04/06 00:35:30;;;;;;;14.43;3.63;;;10.70;75.70;;;;;;5018252;28;20034;-76
2022/04/06 00:37:58;;;;;;;16.73;3.90;;;10.60;76.00;;;;;;5019837;28;20041;-76
2022/04/06 00:40:23;;;;;;;17.83;4.00;;;10.60;76.30;;;;;;5018111;28;20049;-77
2022/04/06 00:42:50;;;;;;;13.82;3.83;;;10.60;76.70;;;;;;5001218;28;20026;-77
2022/04/06 00:45:16;;;;;;;15.82;4.35;;;10.60;76.80;;;;;;5018888;28;20120;-76
2022/04/06 00:47:42;;;;;;;19.55;4.32;;;10.70;76.40;;;;;;5018867;28;20903;-77
2022/04/06 00:50:08;;;;;;;18.92;4.25;;;10.70;76.70;;;;;;5018946;28;20045;-76
2022/04/06 00:52:35;;;;;;;17.67;4.55;;;10.60;76.70;;;;;;5018647;28;20033;-75
2022/04/06 00:55:01;;;;;;;13.15;3.45;;;10.60;76.70;;;;;;5017971;28;20141;-76
2022/04/06 00:57:28;;;;;;;20.50;3.92;;;10.60;76.70;;;;;;5020092;28;20072;-76
2022/04/06 00:59:56;;;;;;;18.77;4.07;;;10.60;76.30;;;;;;5016135;28;20048;-76
2022/04/06 01:02:22;;;;;;;15.25;3.78;;;10.60;76.30;;;;;;5018187;28;20504;-77
2022/04/06 01:04:48;;;;;;;15.23;3.75;;;10.60;76.30;;;;;;4998976;28;20036;-77
2022/04/06 01:07:14;;;;;;;19.92;4.65;;;10.60;76.30;;;;;;5018769;28;20037;-76
2022/04/06 01:09:40;;;;;;;18.08;4.38;;;10.60;76.50;;;;;;5018100;28;20512;-76
2022/04/06 01:12:07;;;;;;;16.17;4.47;;;10.60;76.60;;;;;;5017854;28;20531;-76
2022/04/06 01:14:32;;;;;;;19.48;4.10;;;10.60;76.80;;;;;;5017830;28;20045;-78
2022/04/06 01:17:03;;;;;;;21.52;4.47;;;10.60;77.40;;;;;;5017697;28;20049;-77
2022/04/06 01:19:34;;;;;;;17.65;4.72;;;10.60;77.70;;;;;;5017818;28;20572;-76
2022/04/06 01:22:00;;;;;;;19.70;4.90;;;10.60;78.50;;;;;;5018976;28;20042;-78
2022/04/06 01:24:26;;;;;;;19.90;5.55;;;10.60;79.40;;;;;;5016242;28;20034;-76
2022/04/06 01:26:53;;;;;;;22.92;5.25;;;10.60;80.00;;;;;;5001185;28;20180;-76
2022/04/06 01:29:19;;;;;;;19.88;5.60;;;10.50;80.60;;;;;;5013192;28;20100;-76
2022/04/06 01:31:44;;;;;;;23.38;5.30;;;10.50;81.20;;;;;;5023443;28;20140;-76
2022/04/06 01:34:10;;;;;;;20.17;5.25;;;10.50;81.30;;;;;;4998286;28;20053;-76
2022/04/06 01:36:36;;;;;;;23.58;6.22;;;10.50;81.40;;;;;;5018302;28;20444;-76
2022/04/06 01:39:01;;;;;;;24.13;6.10;;;10.50;81.70;;;;;;5016797;28;20562;-78
2022/04/06 01:41:32;;;;;;;26.45;6.30;;;10.50;81.90;;;;;;5014177;28;20056;-79
2022/04/06 01:43:57;;;;;;;20.80;6.68;;;10.40;82.30;;;;;;5014968;28;20049;-75
2022/04/06 01:46:23;;;;;;;23.63;6.60;;;10.40;82.40;;;;;;5018407;28;20036;-78
2022/04/06 01:54:17;;;;;;;21.27;6.22;;;10.40;82.80;;;;;;5014324;28;20044;-77
2022/04/06 01:56:43;;;;;;;24.70;6.53;;;10.40;82.60;;;;;;5019096;28;20029;-78
2022/04/06 01:59:09;;;;;;;24.85;6.53;;;10.40;82.70;;;;;;5013941;28;20026;-77
2022/04/06 02:01:36;;;;;;;20.63;5.80;;;10.40;82.70;;;;;;4999042;28;20045;-77
2022/04/06 02:04:06;;;;;;;20.35;6.32;;;10.40;82.60;;;;;;5016047;28;20559;-78
2022/04/06 02:06:33;;;;;;;27.88;6.43;;;10.40;82.60;;;;;;5018472;28;20702;-77
2022/04/06 02:08:58;;;;;;;27.15;6.47;;;10.30;82.70;;;;;;5014709;28;20026;-76
2022/04/06 02:11:24;;;;;;;22.42;5.88;;;10.30;82.80;;;;;;4997165;28;20086;-78
2022/04/06 02:13:50;;;;;;;24.08;6.20;;;10.20;82.80;;;;;;5013803;28;20472;-77
2022/04/06 02:16:15;;;;;;;24.15;6.60;;;10.30;83.00;;;;;;5015689;28;20040;-77
2022/04/06 02:18:41;;;;;;;24.15;5.57;;;10.30;82.90;;;;;;5017001;28;20297;-77
2022/04/06 02:21:07;;;;;;;22.35;6.43;;;10.30;82.90;;;;;;5016697;28;20037;-77
2022/04/06 02:23:32;;;;;;;22.40;5.80;;;10.30;82.80;;;;;;5014198;28;20038;-78
2022/04/06 02:25:58;;;;;;;25.00;6.03;;;10.30;82.80;;;;;;5017018;28;20021;-77
2022/04/06 02:28:25;;;;;;;24.10;6.00;;;10.30;82.90;;;;;;5016000;28;20033;-78
2022/04/06 02:30:50;;;;;;;25.77;5.97;;;10.30;82.80;;;;;;4993509;28;20072;-78
2022/04/06 02:33:16;;;;;;;26.10;5.88;;;10.30;82.80;;;;;;5012859;28;20711;-77
2022/04/06 02:35:41;;;;;;;23.73;5.85;;;10.20;82.90;;;;;;5014327;28;20139;-77
2022/04/06 02:38:07;;;;;;;25.42;5.82;;;10.20;82.90;;;;;;5016853;28;20077;-78
2022/04/06 02:40:33;;;;;;;26.45;5.55;;;10.20;83.00;;;;;;5017149;28;20564;-78
2022/04/06 02:42:59;;;;;;;23.55;5.80;;;10.20;82.90;;;;;;5016920;28;20045;-77
2022/04/06 02:45:24;;;;;;;23.95;5.07;;;10.20;82.80;;;;;;5016285;28;20080;-78
2022/04/06 02:47:50;;;;;;;22.65;4.78;;;10.30;82.80;;;;;;5017003;28;20037;-76
2022/04/06 02:50:16;;;;;;;23.00;5.68;;;10.30;82.50;;;;;;5014184;28;21317;-76
2022/04/06 02:52:41;;;;;;;25.65;5.63;;;10.30;82.50;;;;;;4998665;28;20033;-77
2022/04/06 02:55:12;;;;;;;20.02;4.70;;;10.30;82.30;;;;;;5012877;28;20493;-78
2022/04/06 02:57:38;;;;;;;23.83;4.38;;;10.20;82.40;;;;;;5016667;28;20041;-77
2022/04/06 03:00:05;;;;;;;19.17;5.43;;;10.20;82.30;;;;;;5017186;28;20048;-78
2022/04/06 03:02:30;;;;;;;24.73;4.38;;;10.20;82.20;;;;;;5018137;28;20420;-77
2022/04/06 03:04:56;;;;;;;21.08;5.28;;;10.20;82.00;;;;;;5014077;28;20045;-77
2022/04/06 03:07:22;;;;;;;17.77;4.70;;;10.20;81.90;;;;;;5016943;28;20037;-77
2022/04/06 03:09:47;;;;;;;19.95;5.28;;;10.20;81.60;;;;;;5015669;28;20041;-77
2022/04/06 03:12:13;;;;;;;20.92;5.50;;;10.20;81.70;;;;;;5018712;28;20068;-77
2022/04/06 03:14:39;;;;;;;15.52;3.78;;;10.20;81.70;;;;;;5015698;28;20397;-79
2022/04/06 03:17:05;;;;;;;20.30;4.68;;;10.20;81.70;;;;;;5014078;28;20037;-77
2022/04/06 03:19:31;;;;;;;17.77;5.03;;;10.20;81.10;;;;;;5014594;28;20115;-78
2022/04/06 03:21:56;;;;;;;18.67;4.00;;;10.20;80.60;;;;;;5017314;28;20779;-77
2022/04/06 03:24:22;;;;;;;18.13;4.53;;;10.30;80.10;;;;;;4995105;28;20066;-77
2022/04/06 03:26:47;;;;;;;16.73;3.58;;;10.30;79.90;;;;;;5017871;28;20029;-77
2022/04/06 03:29:13;;;;;;;16.65;3.70;;;10.30;78.90;;;;;;5015941;28;20057;-78
2022/04/06 03:31:39;;;;;;;17.27;3.85;;;10.20;78.60;;;;;;5016022;28;20072;-77
2022/04/06 03:34:04;;;;;;;15.27;3.67;;;10.30;78.10;;;;;;5012550;28;20083;-78
2022/04/06 03:36:30;;;;;;;14.05;3.45;;;10.30;77.80;;;;;;5018480;28;20109;-79
2022/04/06 03:38:56;;;;;;;19.45;4.18;;;10.40;77.90;;;;;;5016774;28;20762;-79
2022/04/06 03:41:21;;;;;;;11.45;2.90;;;10.40;77.60;;;;;;5016579;28;20421;-77
2022/04/06 03:43:47;;;;;;;18.75;3.50;;;10.30;78.20;;;;;;5019757;28;20556;-77
2022/04/06 03:46:14;;;;;;;14.30;3.47;;;10.30;78.10;;;;;;5020429;28;20444;-77
2022/04/06 03:48:40;;;;;;;17.42;3.83;;;10.30;78.00;;;;;;5018710;28;20046;-77
2022/04/06 03:51:05;;;;;;;16.80;3.45;;;10.30;78.20;;;;;;5020041;28;20037;-78
2022/04/06 03:53:31;;;;;;;14.43;3.63;;;10.30;78.10;;;;;;5017220;28;20045;-78
2022/04/06 03:55:57;;;;;;;12.40;3.03;;;10.30;77.30;;;;;;5022189;28;20040;-78
2022/04/06 03:58:22;;;;;;;15.48;2.83;;;10.20;76.90;;;;;;5019965;28;20060;-77
2022/04/06 04:00:48;;;;;;;9.93;2.97;;;10.30;76.70;;;;;;5020803;28;20041;-76
2022/04/06 04:03:14;;;;;;;11.30;3.42;;;10.30;76.30;;;;;;5017186;28;20057;-78
2022/04/06 04:05:39;;;;;;;14.00;3.10;;;10.40;75.70;;;;;;4999574;28;20063;-78
2022/04/06 04:08:05;;;;;;;12.55;2.85;;;10.30;75.90;;;;;;5019435;28;20116;-77
2022/04/06 04:10:31;;;;;;;12.75;2.92;;;10.30;75.90;;;;;;4998867;28;20409;-75
2022/04/06 04:12:57;;;;;;;10.88;2.63;;;10.30;76.20;;;;;;5018704;28;20165;-77
2022/04/06 04:15:23;;;;;;;13.43;3.13;;;10.30;75.90;;;;;;5016324;28;20104;-77
2022/04/06 04:17:48;;;;;;;17.50;3.03;;;10.30;75.90;;;;;;5001140;28;20029;-76
2022/04/06 04:20:14;;;;;;;17.55;3.53;;;10.30;76.10;;;;;;5019452;28;20349;-76
2022/04/06 04:22:39;;;;;;;14.07;3.17;;;10.30;76.30;;;;;;5019108;28;20092;-78
2022/04/06 04:25:06;;;;;;;13.35;2.92;;;10.30;76.60;;;;;;5016484;28;20397;-77
2022/04/06 04:27:32;;;;;;;10.40;3.00;;;10.20;76.70;;;;;;5020338;28;20034;-77
2022/04/06 04:29:58;;;;;;;21.88;3.30;;;10.20;76.50;;;;;;5018447;28;20042;-78
2022/04/06 04:32:24;;;;;;;14.10;3.10;;;10.20;76.00;;;;;;5019871;28;20504;-78
2022/04/06 04:34:49;;;;;;;12.98;3.22;;;10.20;76.00;;;;;;5018242;28;20103;-77
2022/04/06 04:37:15;;;;;;;13.85;3.60;;;10.20;76.10;;;;;;5019173;28;20571;-76
2022/04/06 04:39:41;;;;;;;15.98;3.75;;;10.20;76.40;;;;;;5019216;28;20485;-79
2022/04/06 04:42:07;;;;;;;16.90;3.00;;;10.20;76.40;;;;;;5019736;28;20052;-78
2022/04/06 04:44:33;;;;;;;10.90;3.10;;;10.30;76.20;;;;;;5019297;28;20033;-78
2022/04/06 04:46:58;;;;;;;11.18;2.97;;;10.30;76.00;;;;;;5020175;28;20128;-77
2022/04/06 04:49:24;;;;;;;11.13;2.80;;;10.30;75.90;;;;;;5026690;28;20110;-77
2022/04/06 04:51:50;;;;;;;11.63;2.55;;;10.30;75.40;;;;;;5019021;28;20041;-78
2022/04/06 04:54:16;;;;;;;9.90;2.50;;;10.30;75.30;;;;;;5019591;28;20472;-79
2022/04/06 04:56:42;;;;;;;10.95;3.20;;;10.30;75.00;;;;;;5015244;28;20117;-79
2022/04/06 04:59:08;;;;;;;15.52;3.35;;;10.30;75.10;;;;;;5013766;28;20629;-77
2022/04/06 05:01:34;;;;;;;11.60;2.80;;;10.30;75.30;;;;;;5018146;28;20041;-77
2022/04/06 05:04:00;;;;;;;11.65;2.63;;;10.30;74.90;;;;;;5018249;28;20052;-77
2022/04/06 05:06:25;;;;;;;8.65;2.20;;;10.30;75.00;;;;;;5018110;28;20033;-75
2022/04/06 05:08:51;;;;;;;11.27;3.20;;;10.30;74.60;;;;;;5019516;28;20042;-77
2022/04/06 05:11:17;;;;;;;13.48;2.60;;;10.20;74.20;;;;;;5019387;28;20570;-77
2022/04/06 05:13:43;;;;;;;11.57;2.33;;;10.20;74.10;;;;;;5017470;28;20542;-77
2022/04/06 05:16:09;;;;;;;9.57;2.60;;;10.30;74.00;;;;;;5017979;28;20033;-79
2022/04/06 05:18:34;;;;;;;14.43;3.17;;;10.30;74.20;;;;;;5000241;28;20037;-77
2022/04/06 05:21:00;;;;;;;11.10;3.20;;;10.30;73.90;;;;;;5017870;28;20515;-77
2022/04/06 05:23:26;;;;;;;13.43;2.78;;;10.30;73.60;;;;;;5018226;28;20064;-78
2022/04/06 05:25:51;;;;;;;10.85;2.95;;;10.30;73.70;;;;;;5019218;28;20041;-77
2022/04/06 05:28:18;;;;;;;12.15;2.55;;;10.30;73.50;;;;;;5016392;28;20449;-78
2022/04/06 05:30:46;;;;;;;9.77;2.58;;;10.30;73.20;;;;;;5018953;28;20132;-80
2022/04/06 05:33:12;;;;;;;9.43;2.40;;;10.30;73.20;;;;;;5018076;28;20039;-78
2022/04/06 05:35:38;;;;;;;10.95;2.92;;;10.30;73.20;;;;;;5017969;28;20038;-78
2022/04/06 05:38:03;;;;;;;9.80;2.60;;;10.30;73.30;;;;;;5018075;28;20543;-76
2022/04/06 05:40:29;;;;;;;11.27;2.42;;;10.30;73.40;;;;;;5016976;28;20037;-77
2022/04/06 05:42:55;;;;;;;8.18;2.38;;;10.30;73.40;;;;;;5017804;28;20046;-78
2022/04/06 05:45:21;;;;;;;9.05;2.50;;;10.30;73.30;;;;;;5017580;28;20124;-77
2022/04/06 05:47:46;;;;;;;14.63;2.63;;;10.30;73.30;;;;;;5016273;28;20045;-78
2022/04/06 05:50:13;;;;;;;10.02;2.70;;;10.40;73.50;;;;;;5016851;28;20371;-78
2022/04/06 05:52:39;;;;;;;11.93;2.42;;;10.30;73.50;;;;;;5018000;28;20343;-77
2022/04/06 05:55:06;;;;;;;11.05;2.63;;;10.40;73.60;;;;;;5013724;28;20405;-76
2022/04/06 05:57:31;;;;;;;8.13;2.38;;;10.40;73.90;;;;;;4999763;28;20037;-76
2022/04/06 05:59:57;;;;;;;11.02;2.03;;;10.30;74.20;;;;;;5018355;28;20531;-76
2022/04/06 06:02:24;;;;;;;9.82;2.67;;;10.40;74.10;;;;;;5018438;28;20040;-77
2022/04/06 06:04:51;;;;;;;12.95;2.50;;;10.40;74.10;;;;;;5015694;28;20046;-77
2022/04/06 06:07:19;;;;;;;13.48;3.08;;;10.40;74.60;;;;;;5017926;28;20115;-78
2022/04/06 06:09:46;;;;;;;12.27;3.22;;;10.40;74.80;;;;;;5000055;28;20358;-77
2022/04/06 06:12:11;;;;;;;12.50;3.05;;;10.40;74.90;;;;;;5018791;28;20119;-76
2022/04/06 06:14:37;;;;;;;11.93;2.83;;;10.40;75.20;;;;;;5020220;28;20120;-77
2022/04/06 06:17:03;;;;;;;11.73;3.15;;;10.50;75.10;;;;;;5017016;28;20033;-77
2022/04/06 06:19:28;;;;;;;14.68;3.15;;;10.50;75.30;;;;;;5018306;28;20423;-77
2022/04/06 06:21:54;;;;;;;12.23;2.58;;;10.50;75.50;;;;;;5000532;28;20354;-77
2022/04/06 06:24:21;;;;;;;11.63;2.50;;;10.50;75.40;;;;;;5015815;28;20121;-77
2022/04/06 06:26:47;;;;;;;8.63;2.30;;;10.50;75.50;;;;;;5000350;28;20029;-79
2022/04/06 06:29:13;;;;;;;13.73;3.17;;;10.50;75.20;;;;;;5015936;28;20062;-78
2022/04/06 06:31:39;;;;;;;9.23;2.45;;;10.60;75.50;;;;;;5018369;28;20054;-77
2022/04/06 06:34:05;;;;;;;10.65;2.97;;;10.60;75.50;;;;;;5014770;28;20424;-77
2022/04/06 06:36:30;;;;;;;12.35;2.78;;;10.60;75.70;;;;;;5014483;28;20048;-77
2022/04/06 06:38:56;;;;;;;11.07;2.60;;;10.60;75.40;;;;;;5015645;28;20448;-77
2022/04/06 06:41:22;;;;;;;16.10;2.65;;;10.60;75.30;;;;;;5008599;28;20045;-76
2022/04/06 06:43:50;;;;;;;15.60;3.45;;;10.70;75.60;;;;;;5014978;28;20612;-77
2022/04/06 06:46:17;;;;;;;15.00;2.83;;;10.60;75.70;;;;;;5007562;28;20488;-77
2022/04/06 06:48:42;;;;;;;10.77;2.42;;;10.70;75.60;;;;;;5011710;28;20041;-76
2022/04/06 06:51:08;;;;;;;11.75;3.08;;;10.80;75.60;;;;;;5016006;28;20049;-76
2022/04/06 06:53:34;;;;;;;10.30;3.20;;;10.80;75.80;;;;;;4996422;28;20061;-76
2022/04/06 06:56:00;;;;;;;10.55;2.60;;;10.90;75.60;;;;;;5017773;28;20528;-77
2022/04/06 06:58:26;;;;;;;11.93;3.03;;;10.90;75.70;;;;;;5017101;28;20033;-78
2022/04/06 07:00:51;;;;;;;11.02;2.55;;;11.00;75.40;;;;;;5012351;28;20129;-77
2022/04/06 07:03:17;;;;;;;12.15;2.20;;;11.00;75.40;;;;;;5016235;28;20041;-78
2022/04/06 07:05:45;;;;;;;13.77;3.25;;;11.10;75.20;;;;;;5012058;28;20065;-77
2022/04/06 07:08:10;;;;;;;11.07;3.53;;;11.00;75.50;;;;;;5004241;28;20042;-76
2022/04/06 07:10:36;;;;;;;13.38;3.22;;;10.90;76.00;;;;;;5009483;28;20041;-77
2022/04/06 07:13:02;;;;;;;17.80;4.25;;;10.90;76.20;;;;;;5005250;28;20439;-78
2022/04/06 07:15:28;;;;;;;10.55;2.70;;;10.90;76.40;;;;;;5010418;28;20059;-77
2022/04/06 07:17:58;;;;;;;9.77;3.03;;;10.80;76.40;;;;;;5013462;28;20042;-78
2022/04/06 07:20:26;;;;;;;12.45;2.72;;;10.90;76.40;;;;;;5013838;28;20103;-77
2022/04/06 07:22:51;;;;;;;10.48;2.75;;;10.90;76.30;;;;;;5013981;28;20099;-78
2022/04/06 07:25:18;;;;;;;12.68;3.25;;;10.80;76.40;;;;;;5011251;28;20797;-78
2022/04/06 07:27:44;;;;;;;11.35;2.60;;;10.90;76.50;;;;;;5018704;28;20037;-77
2022/04/06 07:30:11;;;;;;;12.20;3.03;;;11.00;76.10;;;;;;5010042;28;20091;-78
2022/04/06 07:32:37;;;;;;;12.57;2.97;;;10.90;76.10;;;;;;5000384;28;20477;-78
2022/04/06 07:35:05;;;;;;;13.52;3.20;;;10.90;76.10;;;;;;5010543;28;20091;-78
2022/04/06 07:37:37;;;;;;;14.93;3.55;;;11.00;76.00;;;;;;5012615;28;20037;-79
2022/04/06 07:40:04;;;;;;;15.43;3.58;;;10.90;75.80;;;;;;5010822;28;20049;-79
2022/04/06 07:42:30;;;;;;;11.25;3.63;;;11.00;75.80;;;;;;5009002;28;20029;-80
2022/04/06 07:44:56;;;;;;;11.85;2.45;;;11.00;75.90;;;;;;5006810;28;20148;-77
2022/04/06 07:47:27;;;;;;;13.77;3.42;;;11.10;75.90;;;;;;5011296;28;20468;-73
2022/04/06 07:49:53;;;;;;;12.65;2.97;;;11.10;75.60;;;;;;5009664;28;20129;-73
2022/04/06 07:52:22;;;;;;;13.32;3.10;;;11.20;75.40;;;;;;5011048;28;20033;-74
2022/04/06 07:54:47;;;;;;;11.05;2.78;;;11.30;75.10;;;;;;5013091;28;20053;-73
2022/04/06 07:57:13;;;;;;;12.07;2.70;;;11.30;75.20;;;;;;5013528;28;20033;-72
2022/04/06 07:59:39;;;;;;;15.48;2.78;;;11.40;75.10;;;;;;5013835;28;20064;-73
2022/04/06 08:02:05;;;;;;;8.38;2.60;;;11.40;75.00;;;;;;5011595;28;20036;-73
2022/04/06 08:04:31;;;;;;;12.05;2.72;;;11.40;74.70;;;;;;5013086;28;20029;-73
2022/04/06 08:06:57;;;;;;;9.75;2.85;;;11.30;75.20;;;;;;4984037;28;20084;-73
2022/04/06 08:09:23;;;;;;;11.43;2.88;;;11.20;75.30;;;;;;5002218;28;20040;-74
2022/04/06 08:11:50;;;;;;;12.40;3.30;;;11.20;75.20;;;;;;5004693;28;20048;-73
2022/04/06 08:14:15;;;;;;;11.98;2.63;;;11.30;75.40;;;;;;5003996;28;20119;-74
2022/04/06 08:16:41;;;;;;;9.85;2.55;;;11.40;75.00;;;;;;4992271;28;20109;-73
2022/04/06 08:19:07;;;;;;;10.25;2.47;;;11.40;75.00;;;;;;5002614;28;20412;-73
2022/04/06 08:21:33;;;;;;;12.10;2.80;;;11.40;75.00;;;;;;5007210;28;20409;-73
2022/04/06 08:23:58;;;;;;;11.60;2.80;;;11.30;75.00;;;;;;5007343;28;20065;-73
2022/04/06 08:26:24;;;;;;;10.57;2.88;;;11.40;74.90;;;;;;4999447;28;20033;-74
2022/04/06 08:28:50;;;;;;;13.55;2.65;;;11.40;75.00;;;;;;5006886;28;20045;-74
2022/04/06 08:31:16;;;;;;;15.93;2.97;;;11.40;75.10;;;;;;5006841;28;20529;-74
2022/04/06 08:33:42;;;;;;;12.70;2.95;;;11.40;74.80;;;;;;5006985;28;20116;-72
2022/04/06 08:36:09;;;;;;;14.52;3.00;;;11.50;74.90;;;;;;5009703;28;20039;-74
2022/04/06 08:38:34;;;;;;;12.30;2.75;;;11.60;74.30;;;;;;4995603;28;20389;-72
2022/04/06 08:41:00;;;;;;;9.32;2.30;;;11.60;74.40;;;;;;5009153;28;20067;-72
2022/04/06 08:43:26;;;;;;;13.20;3.35;;;11.60;74.30;;;;;;4986349;28;20026;-73
2022/04/06 08:45:54;;;;;;;11.23;3.60;;;11.50;74.30;;;;;;5001882;28;20670;-72
2022/04/06 08:48:20;;;;;;;13.77;2.88;;;11.60;74.20;;;;;;5003439;28;20053;-72
2022/04/06 08:50:48;;;;;;;11.05;2.75;;;11.70;73.90;;;;;;5007374;28;20977;-72
2022/04/06 08:53:15;;;;;;;13.05;2.90;;;11.80;74.30;;;;;;4985489;28;20382;-72
2022/04/06 08:55:41;;;;;;;10.02;2.45;;;11.80;73.90;;;;;;5007278;28;20661;-72
2022/04/06 08:58:07;;;;;;;12.30;2.92;;;11.80;74.70;;;;;;4997501;28;20034;-72
2022/04/06 09:00:33;;;;;;;11.23;2.90;;;11.80;74.90;;;;;;5007907;28;20651;-72
2022/04/06 09:02:59;;;;;;;13.57;3.22;;;11.80;76.10;;;;;;5009254;28;20033;-73
2022/04/06 09:05:28;;;;;;;9.85;2.45;;;11.70;76.40;;;;;;5010290;28;20033;-72
2022/04/06 09:07:54;;;;;;;9.80;2.55;;;11.70;76.50;;;;;;4996262;28;20058;-73
2022/04/06 09:10:38;;;;;;;12.48;3.63;;;11.50;76.80;;;;;;4995918;28;20739;-73
2022/04/06 09:13:30;;;;;;;7.17;2.87;;;11.50;76.90;;;;;;4980632;28;20045;-73
2022/04/06 09:16:00;;;;;;;11.02;2.80;;;11.50;77.10;;;;;;4993938;28;20088;-73
2022/04/06 09:18:46;;;;;;;10.77;3.45;;;11.60;78.30;;;;;;4994468;28;20087;-73
2022/04/06 09:21:14;;;;;;;12.07;2.95;;;11.60;78.20;;;;;;4999431;28;20049;-73
2022/04/06 09:23:40;;;;;;;12.48;3.00;;;11.60;78.30;;;;;;4998456;28;20497;-73
2022/04/06 09:26:07;;;;;;;12.07;3.10;;;11.60;77.70;;;;;;4998934;28;20044;-74
2022/04/06 09:28:32;;;;;;;12.45;3.28;;;11.60;77.20;;;;;;5000673;28;20454;-73
2022/04/06 09:30:58;;;;;;;8.20;3.08;;;11.60;76.60;;;;;;4999039;28;20045;-73
2022/04/06 09:33:29;;;;;;;10.18;3.17;;;11.80;76.70;;;;;;4998518;28;21593;-74
2022/04/06 09:35:58;;;;;;;11.57;2.97;;;11.80;76.70;;;;;;5001152;28;20034;-74
2022/04/06 09:38:27;;;;;;;8.55;2.75;;;11.80;76.50;;;;;;4998535;28;20037;-74
2022/04/06 09:41:06;;;;;;;10.38;3.65;;;11.70;76.40;;;;;;5005584;28;20042;-74
2022/04/06 09:43:35;;;;;;;12.43;2.97;;;11.80;76.00;;;;;;5000621;28;20037;-73
2022/04/06 09:49:12;;;;;;;10.38;2.65;;;11.80;76.00;;;;;;4998390;28;20060;-73
2022/04/06 09:51:39;;;;;;;11.45;3.38;;;11.70;75.30;;;;;;5014056;28;20492;-74
2022/04/06 09:54:07;;;;;;;13.93;2.92;;;11.80;75.60;;;;;;5018005;28;20044;-75
2022/04/06 09:56:34;;;;;;;13.00;2.83;;;11.80;75.30;;;;;;5019666;28;20029;-72
2022/04/06 09:59:02;;;;;;;9.40;3.03;;;11.90;75.70;;;;;;5014483;28;20056;-72
2022/04/06 10:01:52;;;;;;;7.03;2.75;;;12.00;75.50;;;;;;5015732;28;20045;-74
2022/04/06 10:04:23;;;;;;;8.93;2.95;;;12.10;75.60;;;;;;5003941;28;20102;-74
2022/04/06 10:06:49;;;;;;;10.70;2.97;;;12.10;75.30;;;;;;4993549;28;20041;-74
2022/04/06 10:09:15;;;;;;;10.70;3.08;;;12.10;75.40;;;;;;5013830;28;20425;-73
2022/04/06 10:11:42;;;;;;;10.38;2.97;;;12.20;75.70;;;;;;5016353;28;20136;-73
2022/04/06 10:14:10;;;;;;;8.68;3.17;;;12.10;75.00;;;;;;5017605;28;20622;-73
2022/04/06 10:16:36;;;;;;;9.60;2.80;;;12.10;74.60;;;;;;5010229;28;20038;-74
2022/04/06 10:19:05;;;;;;;8.73;3.10;;;12.00;75.10;;;;;;5005248;28;20041;-74
2022/04/06 10:21:53;;;;;;;9.85;2.67;;;12.00;75.50;;;;;;5016861;28;20033;-73
2022/04/06 10:24:26;;;;;;;9.80;3.45;;;12.00;74.70;;;;;;5007832;28;20742;-73
2022/04/06 10:27:30;;;;;;;10.18;2.95;;;12.00;74.80;;;;;;5010415;28;20061;-74
2022/04/06 10:30:15;;;;;;;8.07;2.85;;;12.00;75.00;;;;;;5012416;28;20398;-73
2022/04/06 10:32:44;;;;;;;11.85;2.75;;;12.10;75.20;;;;;;5010096;28;20041;-74
2022/04/06 10:35:27;;;;;;;7.25;2.10;;;12.00;74.50;;;;;;5008436;28;20504;-76
2022/04/06 10:38:12;;;;;;;6.03;2.10;;;12.00;74.40;;;;;;5008587;28;20034;-73
2022/04/06 10:40:47;;;;;;;6.72;2.95;;;12.10;74.40;;;;;;5010045;28;20164;-73
2022/04/06 10:43:34;;;;;;;9.63;2.15;;;12.10;74.30;;;;;;5006323;28;20444;-72
2022/04/06 10:46:00;;;;;;;6.78;2.35;;;12.10;74.20;;;;;;5012526;28;20052;-72
2022/04/06 10:48:26;;;;;;;10.85;2.97;;;12.10;74.10;;;;;;5007717;28;20409;-73
2022/04/06 10:50:53;;;;;;;6.80;2.60;;;12.10;74.20;;;;;;5009753;28;20038;-73
2022/04/06 10:53:19;;;;;;;7.07;2.40;;;12.10;74.10;;;;;;5008734;28;20037;-74
2022/04/06 10:55:57;;;;;;;8.00;2.42;;;12.10;74.50;;;;;;4996573;28;20041;-75
2022/04/06 10:58:25;;;;;;;9.95;2.60;;;12.10;74.40;;;;;;5008826;28;20464;-74
2022/04/06 11:01:16;;;;;;;8.13;2.63;;;12.20;74.50;;;;;;5008724;28;20085;-74
2022/04/06 11:03:56;;;;;;;7.05;2.30;;;12.20;74.90;;;;;;4993495;28;20061;-74
2022/04/06 11:06:49;;;;;;;5.45;2.38;;;12.20;74.70;;;;;;5017210;28;20049;-74
2022/04/06 11:12:20;;;;;;;4.82;2.10;;;12.60;73.60;;;;;;5005144;28;20095;-73
2022/04/06 11:14:50;;;;;;;7.78;2.50;;;12.50;73.60;;;;;;5005238;28;20978;-74
2022/04/06 11:17:39;;;;;;;5.38;2.60;;;12.50;74.30;;;;;;5003600;28;20811;-73
2022/04/06 11:20:16;;;;;;;6.25;2.40;;;12.40;74.40;;;;;;5005383;28;20099;-74
2022/04/06 11:22:49;;;;;;;7.80;2.78;;;12.30;74.50;;;;;;5003548;28;20953;-73
2022/04/06 11:25:17;;;;;;;5.55;2.38;;;12.40;74.50;;;;;;5008978;28;20030;-73
2022/04/06 11:27:44;;;;;;;8.88;2.53;;;12.30;74.80;;;;;;5008382;28;20100;-73
2022/04/06 11:30:18;;;;;;;8.32;3.35;;;12.30;74.70;;;;;;5003350;28;20568;-73
2022/04/06 11:32:58;;;;;;;6.82;3.00;;;12.40;75.00;;;;;;5003651;28;20041;-73
2022/04/06 11:35:30;;;;;;;8.85;3.30;;;12.40;75.10;;;;;;5006608;28;20559;-74
2022/04/06 11:37:56;;;;;;;9.52;3.38;;;12.30;75.10;;;;;;4990059;28;20492;-74
2022/04/06 11:40:23;;;;;;;8.77;3.13;;;12.10;75.10;;;;;;5014432;28;20197;-74
2022/04/06 11:42:56;;;;;;;5.88;2.75;;;12.30;75.60;;;;;;5015970;28;20098;-74
2022/04/06 11:45:29;;;;;;;10.07;3.20;;;12.40;75.10;;;;;;5015058;28;20045;-73
2022/04/06 11:48:01;;;;;;;7.43;2.90;;;12.40;74.60;;;;;;5008938;28;20045;-73
2022/04/06 11:50:35;;;;;;;7.35;2.97;;;12.50;74.30;;;;;;5007983;28;20065;-73
2022/04/06 11:53:09;;;;;;;11.73;3.33;;;12.40;74.30;;;;;;4989507;28;20120;-73
2022/04/06 11:55:49;;;;;;;6.90;3.05;;;12.40;74.30;;;;;;4996688;28;20041;-74
2022/04/06 11:58:37;;;;;;;5.90;3.10;;;12.40;74.50;;;;;;5016325;28;20071;-73
2022/04/06 12:01:08;;;;;;;7.10;2.83;;;12.60;73.80;;;;;;5010565;28;20046;-74
2022/04/06 12:03:39;;;;;;;8.68;3.10;;;12.60;73.80;;;;;;5015828;28;20033;-74
2022/04/06 12:06:07;;;;;;;12.13;3.72;;;12.60;73.40;;;;;;5015960;28;20025;-74
2022/04/06 12:08:34;;;;;;;8.68;2.83;;;12.60;73.20;;;;;;5009435;28;20041;-74
2022/04/06 12:11:00;;;;;;;9.50;2.85;;;12.60;73.70;;;;;;5012717;28;20033;-74
2022/04/06 12:13:29;;;;;;;6.90;2.70;;;12.70;73.20;;;;;;5013944;28;20140;-73
2022/04/06 12:15:55;;;;;;;7.15;2.97;;;12.90;73.30;;;;;;5016561;28;20060;-74
2022/04/06 12:18:24;;;;;;;8.30;2.85;;;13.10;72.80;;;;;;5006392;28;20038;-74
2022/04/06 12:20:50;;;;;;;7.88;3.17;;;13.10;72.10;;;;;;4998400;28;20431;-74
2022/04/06 12:23:19;;;;;;;6.95;3.03;;;13.00;71.90;;;;;;5011090;28;20033;-74
2022/04/06 12:25:46;;;;;;;6.85;2.60;;;12.80;72.20;;;;;;5014063;28;20049;-74
2022/04/06 12:28:21;;;;;;;5.45;2.70;;;12.60;72.90;;;;;;5014812;28;20047;-73
2022/04/06 12:31:05;;;;;;;6.80;2.60;;;12.50;73.40;;;;;;5009783;28;20045;-75
2022/04/06 12:33:46;;;;;;;6.53;3.00;;;12.40;73.80;;;;;;5010887;28;20516;-74
2022/04/06 12:36:16;;;;;;;9.15;2.88;;;12.40;73.90;;;;;;5007007;28;20034;-73
2022/04/06 12:38:55;;;;;;;9.05;2.97;;;12.50;74.40;;;;;;4991531;28;20033;-74
2022/04/06 12:41:22;;;;;;;5.38;3.10;;;12.40;74.30;;;;;;5013043;28;20520;-74
2022/04/06 12:43:48;;;;;;;6.78;2.90;;;12.40;74.50;;;;;;5011260;28;20072;-74
2022/04/06 12:46:14;;;;;;;7.68;3.10;;;12.40;74.40;;;;;;5009573;28;20590;-74
2022/04/06 12:48:39;;;;;;;8.95;3.40;;;12.50;74.40;;;;;;5013645;28;20099;-74
2022/04/06 12:51:21;;;;;;;6.63;2.78;;;12.50;74.00;;;;;;5007071;28;20827;-73
2022/04/06 12:53:48;;;;;;;7.15;3.45;;;12.40;74.50;;;;;;5007677;28;20777;-73
2022/04/06 12:56:15;;;;;;;8.90;3.17;;;12.50;74.50;;;;;;4994131;28;20033;-74